x

Bodega Bay - 48nm Nnw Of San Francisco, Ca (46013) Wave Buoy

9:50am - Fri 3rd Jul 2015 All times are PDT. -7 hours from GMT.

  • Sig Wave height 3.6ft
  • Peak Period 9s
  • Average Period 7s
  • Wind
    4mph, 7mph gusts
  • Sea Temp 55°f
  • Air Temp 56°f
  • Sea Pressure 1014.6mb
  • Bodega Bay - 48nm Nnw Of San Francisco, Ca
  • Bodega Bay - 48nm Nnw Of San Francisco, Ca

More Historic Weather Station data

Upgrade to MSW Pro to gain access to the past 30 days of data for over 8000 Wavebouys and Weather Stations around the globe.

Join Pro

Comparision Forecast

View Surf forecast
   
Fri 07/03 9:50am 3.5ft 9s 7s 4 7 mph 1014.6mb 55f 56f
8:50am 3.5ft 15s 8s 7 9 mph 1014.7mb 55f 56f
7:50am 3.5ft 9s 7s 4 7 mph 1014.4mb 55f 56f
6:50am 3.5ft 9s 7s 4 7 mph 1014.5mb 56f 56f
5:50am 4ft 9s 7s 7
mph
1014.2mb 56f 56f
4:50am 4ft 9s 7s 4 7 mph 1013.2mb 56f 56f
3:50am 4.5ft 9s 8s 4 7 mph 1013mb 56f 56f
2:50am 4ft 15s 7s 4 7 mph 1013.4mb 56f 56f
1:50am 4ft 9s 7s 4 7 mph 1013.2mb 56f 56f
12:50am 3.5ft 10s 7s 2 4 mph 1013.9mb 56f 56f
Thu 07/02 11:50pm 4ft 9s 7s 4 7 mph 1014.4mb 55f 56f
10:50pm 4.5ft 9s 7s 4 7 mph 1014.4mb 56f 56f
9:50pm 4ft 9s 7s 2 4 mph 1014.3mb 56f 56f
8:50pm 4ft 9s 7s 2 4 mph 1014mb 55f 55f
7:50pm 4ft 8s 7s 4
mph
1014mb 56f 55f
6:50pm 4ft 9s 7s 4
mph
1013.5mb 56f 55f
5:50pm 4ft 10s 7s 2
mph
1013.7mb 56f 55f
4:50pm 4.5ft 9s 7s 2 4 mph 1014.2mb 56f 55f
3:50pm 4.5ft 15s 7s 2 4 mph 1014.3mb 56f 55f
2:50pm 5ft 8s 7s  -  2 mph 1014.8mb 55f 55f
1:50pm 4.5ft 9s 7s  -  2 mph 1015.3mb 55f 55f
12:50pm 4.5ft 8s 7s 2 4 mph 1015.5mb 55f 54f
11:50am 4.5ft 9s 7s 4
mph
1015.6mb 54f 54f
10:50am 4.5ft 9s 7s 7 9 mph 1015.1mb 54f 54f
9:50am 4ft 8s 7s 7
mph
1015mb 54f 53f
8:50am 4.5ft 9s 7s 4
mph
1014.7mb 54f 53f
7:50am 4.5ft 9s 7s 4
mph
1014.4mb 54f 53f
6:50am 4.5ft 9s 7s 2 4 mph 1014.1mb 54f 53f
5:50am 4.5ft 9s 7s 11 13 mph 1012.6mb 54f 53f
4:50am 4.5ft 9s 7s  -  2 mph 1013.5mb 54f 53f
3:50am 5ft 9s 7s  -  2 mph 1013.6mb 54f 53f
2:50am 4.5ft 9s 7s 2 4 mph 1013.9mb 54f 53f
1:50am 4.5ft 9s 6s 2 4 mph 1012.9mb 54f 53f
12:50am 4.5ft 8s 6s 2 4 mph 1013mb 54f 53f
Wed 07/01 11:50pm 3.5ft 8s 6s 4
mph
1013.2mb 54f 53f
10:50pm 3.5ft 8s 6s 2 4 mph 1013mb 54f 53f
9:50pm 3.5ft 9s 6s 4 7 mph 1012.2mb 54f 54f
8:50pm 3.5ft 9s 7s 16 20 mph 1010.8mb 55f 54f
7:50pm 3.5ft 8s 7s 9
mph
1012.5mb 55f 55f
6:50pm 3.5ft 10s 7s  -  2 mph 1013.3mb 55f 55f
5:50pm 3.5ft 9s 7s 2 4 mph 1013.5mb 55f 55f
4:50pm 3.5ft 9s 6s 2 4 mph 1013.8mb 55f 55f
3:50pm 4ft 9s 6s  -  2 mph 1013.9mb 55f 56f
2:50pm 4ft 9s 6s 4 7 mph 1014.4mb 54f 55f
1:50pm 3.5ft 8s 6s 2 4 mph 1014.3mb 53f 54f
12:50pm 3.5ft 8s 6s 4
mph
1014.5mb 53f 54f
11:50am 4.5ft 8s 6s 11
mph
1014.3mb 53f 53f
10:50am 4.5ft 8s 6s 9
mph
1013.2mb 53f 53f
9:50am 5ft 8s 6s 4 7 mph 1012.2mb 53f 53f
8:50am 4.5ft 8s 6s 2
mph
1011.7mb 54f 53f
7:50am 4.5ft 8s 6s 4
mph
1011.1mb 53f 52f
6:50am 4.5ft 8s 6s 2 4 mph 1010.5mb 53f 53f
5:50am 4.5ft 8s 6s  -  2 mph 1010.4mb 53f 53f
4:50am 4.5ft 8s 6s 2 4 mph 1010.3mb 54f 53f
3:50am 4.5ft 8s 6s 2
mph
1010.7mb 54f 53f
2:50am 5ft 8s 6s 2 4 mph 1011.2mb 53f 53f
1:50am 5ft 8s 6s 2 4 mph 1011.5mb 53f 53f
12:50am 4.5ft 8s 6s 7 9 mph 1011.2mb 53f 53f
Tue 06/30 11:50pm 4.5ft 8s 6s 9 11 mph 1011mb 53f 53f
10:50pm 5ft 8s 6s 13 16 mph 1010.9mb 53f 53f
9:50pm 5ft 7s 6s 13 18 mph 1011.1mb 53f 53f
8:50pm 5ft 8s 6s 16 18 mph 1010.7mb 53f 53f
7:50pm 5ft 8s 5s 16 20 mph 1010.4mb 53f 53f
6:50pm 5ft 8s 5s 18 22 mph 1010mb 53f 54f
5:50pm 4.5ft 8s 5s 18 22 mph 1010.5mb 54f 54f
4:50pm 4.5ft 8s 5s 18 22 mph 1010.9mb 53f 54f
3:50pm 4.5ft 8s 5s 18 20 mph 1011.3mb 53f 54f
2:50pm 5ft 8s 5s 16 18 mph 1012mb 52f 53f
1:50pm 5ft 7s 6s 18 20 mph 1012.1mb 53f 53f
12:50pm 5ft 8s 5s 16 18 mph 1012.9mb 53f 53f
11:50am 5ft 8s 6s 13 16 mph 1013.1mb 52f 53f
10:50am 5.5ft 8s 6s 13 16 mph 1012.9mb 52f 53f
9:50am 5.5ft 8s 6s 13 16 mph 1013.2mb 52f 51f
8:50am 5ft 7s 6s 16 20 mph 1012.7mb 52f 51f
7:50am 6ft 7s 6s 16 18 mph 1012.7mb 52f 52f
6:50am 6ft 7s 5s 18 22 mph 1012.6mb 52f 52f
5:50am 5ft 7s 5s 20 25 mph 1012.5mb 52f 52f
4:50am 5ft 6s 5s 18 20 mph 1012.7mb 52f 53f
3:50am 5.5ft 6s 5s 20 25 mph 1012.8mb 52f 53f
2:50am 6ft 6s 5s 22 25 mph 1012.7mb 52f 53f
1:50am 6ft 6s 5s 22 27 mph 1012.9mb 52f 54f
12:50am 6.5ft 6s 5s 25 31 mph 1012.7mb 52f 54f
Mon 06/29 11:50pm 6.5ft 6s 5s 25 31 mph 1012.8mb 52f 55f
10:50pm 6.5ft 6s 5s 27 31 mph 1013.1mb 53f 55f
9:50pm 6.5ft 6s 5s 27 34 mph 1012.8mb 53f 56f
8:50pm 6ft 5s 5s 27 31 mph 1012.6mb 53f 56f
7:50pm 6ft 6s 5s 27 29 mph 1012.7mb 54f 57f
6:50pm 5.5ft 6s 5s 25 29 mph 1013.1mb 55f 57f
5:50pm 5ft 9s 5s 27 31 mph 1013.6mb 55f 56f